Time;durP1;ratioP1;P1;durP2;ratioP2;P2;SDS_P1;SDS_P2;PMS_P1;PMS_P2;Temp;Humidity;BMP_temperature;BMP_pressure;BME280_temperature;BME280_humidity;BME280_pressure;Samples;Min_cycle;Max_cycle;Signal;HPM_P1;HPM_P2
2021/01/13 00:01:01;;;;;;;7.67;6.87;;;3.50;99.90;;;;;;5017769;28;20435;-56
2021/01/13 00:03:26;;;;;;;7.80;6.43;;;3.60;99.90;;;;;;5018578;28;20402;-57
2021/01/13 00:05:52;;;;;;;11.03;8.13;;;3.60;99.90;;;;;;5017584;28;20215;-56
2021/01/13 00:08:17;;;;;;;9.03;7.47;;;3.60;99.90;;;;;;5019854;28;20176;-56
2021/01/13 00:10:43;;;;;;;11.03;8.10;;;3.70;99.90;;;;;;5021986;28;20563;-55
2021/01/13 00:13:09;;;;;;;8.43;7.33;;;3.80;99.90;;;;;;5022101;28;20161;-56
2021/01/13 00:15:34;;;;;;;7.50;6.73;;;3.90;99.90;;;;;;5023274;28;20204;-53
2021/01/13 00:18:00;;;;;;;10.27;7.37;;;3.90;99.90;;;;;;5022117;28;20179;-58
2021/01/13 00:20:25;;;;;;;8.30;6.10;;;3.70;99.90;;;;;;5023615;28;20192;-54
2021/01/13 00:22:51;;;;;;;8.27;7.37;;;3.80;99.90;;;;;;5022101;28;20622;-56
2021/01/13 00:25:17;;;;;;;6.50;5.53;;;3.80;99.90;;;;;;5022333;28;20227;-57
2021/01/13 00:27:43;;;;;;;6.40;5.80;;;3.90;99.90;;;;;;5022882;28;20179;-57
2021/01/13 00:30:09;;;;;;;12.23;6.30;;;4.00;99.90;;;;;;5022972;28;20820;-57
2021/01/13 00:32:35;;;;;;;10.70;6.93;;;4.00;99.90;;;;;;5021010;28;20167;-55
2021/01/13 00:35:00;;;;;;;7.83;7.03;;;3.90;99.90;;;;;;5020938;28;20446;-54
2021/01/13 00:37:27;;;;;;;7.63;5.70;;;4.00;99.90;;;;;;5020238;28;20172;-55
2021/01/13 00:39:52;;;;;;;8.67;5.93;;;4.20;99.90;;;;;;5021126;28;20653;-54
2021/01/13 00:42:18;;;;;;;6.80;6.10;;;4.30;99.90;;;;;;5022070;28;20403;-57
2021/01/13 00:44:44;;;;;;;6.70;5.27;;;4.30;99.90;;;;;;5022437;28;20234;-52
2021/01/13 00:47:15;;;;;;;15.23;6.20;;;4.40;99.90;;;;;;5021688;28;20184;-53
2021/01/13 00:49:42;;;;;;;6.90;5.20;;;4.50;99.90;;;;;;5019923;28;20220;-56
2021/01/13 00:52:09;;;;;;;5.40;4.60;;;4.60;99.90;;;;;;5021247;28;20414;-54
2021/01/13 00:54:35;;;;;;;7.30;5.10;;;4.60;99.90;;;;;;5020949;28;20454;-53
2021/01/13 00:57:00;;;;;;;6.10;4.57;;;4.40;99.90;;;;;;5021345;28;20446;-53
2021/01/13 00:59:26;;;;;;;5.60;4.30;;;4.40;99.90;;;;;;5021382;28;20407;-54
2021/01/13 01:01:52;;;;;;;5.90;5.30;;;4.30;99.90;;;;;;5021861;28;20164;-57
2021/01/13 01:04:17;;;;;;;9.60;4.83;;;4.20;99.90;;;;;;5020333;28;20553;-54
2021/01/13 01:06:47;;;;;;;8.07;4.80;;;4.20;99.90;;;;;;5020799;28;20168;-55
2021/01/13 01:09:13;;;;;;;5.90;4.23;;;4.30;99.90;;;;;;5019790;28;20176;-54
2021/01/13 01:11:39;;;;;;;8.07;4.80;;;4.30;99.90;;;;;;5021073;28;20826;-53
2021/01/13 01:14:09;;;;;;;4.90;4.27;;;4.20;99.90;;;;;;5021120;28;20191;-54
2021/01/13 01:16:41;;;;;;;5.50;4.90;;;4.30;99.90;;;;;;5020824;28;20384;-57
2021/01/13 01:19:08;;;;;;;7.73;4.93;;;4.30;99.90;;;;;;5020051;28;20467;-57
2021/01/13 01:21:37;;;;;;;4.80;4.30;;;4.50;99.90;;;;;;5020233;28;20948;-57
2021/01/13 01:24:03;;;;;;;7.97;3.50;;;4.60;99.90;;;;;;5020938;28;20407;-56
2021/01/13 01:26:28;;;;;;;4.00;3.70;;;4.40;99.90;;;;;;5019610;28;20431;-56
2021/01/13 01:28:54;;;;;;;4.90;4.10;;;4.30;99.90;;;;;;5021922;28;20516;-57
2021/01/13 01:31:19;;;;;;;5.70;4.70;;;4.40;99.90;;;;;;5020168;28;20196;-54
2021/01/13 01:33:45;;;;;;;6.20;4.30;;;4.50;99.90;;;;;;5020906;28;20206;-54
2021/01/13 01:36:14;;;;;;;4.00;3.57;;;4.30;99.90;;;;;;5019339;28;20172;-55
2021/01/13 01:38:41;;;;;;;4.77;3.20;;;4.50;99.90;;;;;;5020054;28;20175;-54
2021/01/13 01:41:09;;;;;;;5.57;4.47;;;4.50;99.90;;;;;;5020267;28;20490;-53
2021/01/13 01:43:35;;;;;;;3.40;3.10;;;4.50;99.90;;;;;;5003834;28;20498;-54
2021/01/13 01:46:01;;;;;;;6.10;3.80;;;4.50;99.90;;;;;;5019835;28;20410;-54
2021/01/13 01:48:33;;;;;;;8.63;3.73;;;4.60;99.90;;;;;;5019748;28;20431;-54
2021/01/13 01:51:00;;;;;;;4.30;3.80;;;4.70;99.90;;;;;;5019039;28;20266;-53
2021/01/13 01:53:48;;;;;;;5.70;3.70;;;4.70;99.90;;;;;;5019368;28;20453;-54
2021/01/13 01:56:19;;;;;;;5.70;3.50;;;4.70;99.90;;;;;;5020075;28;20426;-55
2021/01/13 01:58:54;;;;;;;4.90;3.33;;;4.60;99.90;;;;;;5019599;28;20908;-56
2021/01/13 02:01:30;;;;;;;5.30;3.00;;;4.60;99.90;;;;;;5019457;28;20477;-53
2021/01/13 02:04:11;;;;;;;7.20;4.00;;;4.60;99.90;;;;;;5018434;28;20430;-54
2021/01/13 02:07:03;;;;;;;4.13;3.67;;;4.60;99.90;;;;;;5019832;28;20398;-53
2021/01/13 02:09:29;;;;;;;5.80;3.93;;;4.60;99.90;;;;;;5007880;28;20458;-54
2021/01/13 02:11:57;;;;;;;4.27;3.87;;;4.60;99.90;;;;;;5022144;28;20411;-53
2021/01/13 02:14:25;;;;;;;6.43;3.97;;;4.60;99.90;;;;;;5019860;28;20537;-57
2021/01/13 02:16:55;;;;;;;5.90;3.67;;;4.60;99.90;;;;;;5019250;28;20403;-53
2021/01/13 02:19:47;;;;;;;6.43;3.87;;;4.50;99.90;;;;;;5018167;28;20419;-54
2021/01/13 02:22:14;;;;;;;3.77;3.13;;;4.40;99.90;;;;;;5019535;28;20387;-54
2021/01/13 02:25:24;;;;;;;4.03;3.73;;;4.50;99.90;;;;;;5017894;28;20429;-53
2021/01/13 02:28:09;;;;;;;7.50;3.70;;;4.60;99.90;;;;;;5019315;28;20410;-54
2021/01/13 02:31:05;;;;;;;4.47;3.53;;;4.70;99.90;;;;;;5019877;28;20419;-53
2021/01/13 02:33:38;;;;;;;5.33;3.57;;;4.70;99.90;;;;;;5019927;28;20804;-56
2021/01/13 02:36:16;;;;;;;3.90;3.10;;;4.70;99.90;;;;;;5018598;28;20785;-56
2021/01/13 02:38:44;;;;;;;4.10;3.70;;;4.60;99.90;;;;;;5019811;28;20396;-57
2021/01/13 02:41:16;;;;;;;6.70;3.60;;;4.70;99.90;;;;;;5019039;28;20435;-56
2021/01/13 02:43:53;;;;;;;3.83;3.37;;;4.60;99.90;;;;;;5019671;28;20482;-54
2021/01/13 02:46:45;;;;;;;6.87;3.07;;;4.60;99.90;;;;;;5020048;28;20414;-55
2021/01/13 02:49:12;;;;;;;3.87;3.00;;;4.50;99.90;;;;;;5012043;28;20951;-57
2021/01/13 02:51:40;;;;;;;3.13;2.40;;;4.40;99.90;;;;;;5018528;28;20458;-57
2021/01/13 02:54:28;;;;;;;3.07;2.77;;;4.50;99.90;;;;;;5021043;28;20451;-56
2021/01/13 02:57:17;;;;;;;3.10;2.80;;;4.50;99.90;;;;;;5019966;28;20395;-53
2021/01/13 02:59:45;;;;;;;4.20;3.27;;;4.50;99.90;;;;;;5018924;28;20422;-53
2021/01/13 03:02:12;;;;;;;3.80;3.40;;;4.40;99.90;;;;;;5016920;28;20419;-54
2021/01/13 03:04:39;;;;;;;5.50;3.90;;;4.30;99.90;;;;;;5019519;28;20403;-54
2021/01/13 03:07:16;;;;;;;3.97;3.40;;;4.20;99.90;;;;;;5017681;28;20438;-53
2021/01/13 03:09:47;;;;;;;4.57;2.90;;;4.20;99.90;;;;;;5017083;28;20443;-57
2021/01/13 03:12:26;;;;;;;3.80;2.87;;;4.30;99.90;;;;;;5019331;28;20405;-54
2021/01/13 03:14:56;;;;;;;7.47;3.40;;;4.40;99.90;;;;;;5019446;28;20454;-57
2021/01/13 03:17:50;;;;;;;5.37;2.87;;;4.40;99.90;;;;;;5017522;28;20423;-54
2021/01/13 03:20:29;;;;;;;2.77;2.57;;;4.30;99.90;;;;;;5018309;28;20423;-53
2021/01/13 03:23:33;;;;;;;4.17;2.93;;;4.30;99.90;;;;;;5001679;28;20786;-55
2021/01/13 03:26:04;;;;;;;4.87;2.40;;;4.40;99.90;;;;;;5019933;28;20387;-57
2021/01/13 03:28:36;;;;;;;6.83;3.03;;;4.30;99.90;;;;;;5018839;28;20414;-57
2021/01/13 03:31:03;;;;;;;5.80;3.07;;;4.40;99.90;;;;;;5018340;28;20853;-57
2021/01/13 03:34:00;;;;;;;4.00;2.97;;;4.40;99.90;;;;;;5017858;28;20458;-56
2021/01/13 03:36:40;;;;;;;3.93;2.40;;;4.40;99.90;;;;;;5018365;28;20434;-55
2021/01/13 03:39:07;;;;;;;5.10;3.47;;;4.30;99.90;;;;;;5017540;28;20418;-54
2021/01/13 03:41:54;;;;;;;10.03;3.03;;;4.30;99.90;;;;;;5018654;28;20426;-56
2021/01/13 03:44:34;;;;;;;3.17;2.87;;;4.20;99.90;;;;;;5021407;28;20383;-56
2021/01/13 03:47:11;;;;;;;4.73;3.10;;;4.30;99.90;;;;;;5022901;28;20433;-56
2021/01/13 03:49:45;;;;;;;4.07;2.73;;;4.20;99.90;;;;;;5022724;28;20457;-53
2021/01/13 03:52:13;;;;;;;5.60;3.27;;;4.30;99.90;;;;;;5021362;28;20497;-56
2021/01/13 03:54:43;;;;;;;5.40;3.70;;;4.20;99.90;;;;;;5023116;28;20478;-57
2021/01/13 03:57:08;;;;;;;3.33;2.93;;;4.20;99.90;;;;;;5022900;28;20903;-56
2021/01/13 04:00:01;;;;;;;4.07;3.30;;;4.30;99.90;;;;;;5023236;28;20410;-57
2021/01/13 04:02:38;;;;;;;4.60;3.10;;;4.40;99.90;;;;;;5023235;28;20228;-53
2021/01/13 04:05:27;;;;;;;3.27;2.70;;;4.40;99.90;;;;;;5023820;28;20417;-56
2021/01/13 04:07:55;;;;;;;2.63;2.40;;;4.40;99.90;;;;;;5022360;28;20416;-55
2021/01/13 04:10:21;;;;;;;4.60;2.77;;;4.50;99.90;;;;;;5005566;28;20446;-56
2021/01/13 04:13:15;;;;;;;4.53;2.20;;;4.40;99.90;;;;;;5022653;28;20776;-57
2021/01/13 04:15:41;;;;;;;4.00;2.93;;;4.20;99.90;;;;;;5023275;28;20761;-57
2021/01/13 04:18:09;;;;;;;3.67;2.87;;;4.10;99.90;;;;;;5023082;28;20907;-55
2021/01/13 04:20:36;;;;;;;5.83;3.40;;;4.20;99.90;;;;;;5022370;28;20418;-57
2021/01/13 04:23:04;;;;;;;3.83;2.93;;;4.10;99.90;;;;;;5024102;28;20415;-55
2021/01/13 04:25:30;;;;;;;5.10;3.20;;;4.10;99.90;;;;;;5022743;28;20411;-56
2021/01/13 04:27:55;;;;;;;3.93;3.53;;;4.10;99.90;;;;;;5021926;28;20419;-57
2021/01/13 04:30:25;;;;;;;5.40;3.30;;;4.10;99.90;;;;;;5021052;28;20513;-55
2021/01/13 04:32:55;;;;;;;4.17;2.90;;;4.20;99.90;;;;;;5022522;28;20188;-57
2021/01/13 04:35:22;;;;;;;4.70;3.90;;;4.10;99.90;;;;;;5022198;28;20450;-57
2021/01/13 04:37:55;;;;;;;3.93;3.27;;;4.20;99.90;;;;;;5021411;28;20418;-57
2021/01/13 04:40:23;;;;;;;6.57;4.17;;;4.30;99.90;;;;;;5021269;28;20496;-55
2021/01/13 04:43:01;;;;;;;3.57;2.80;;;4.30;99.90;;;;;;5020926;28;20425;-57
2021/01/13 04:45:46;;;;;;;3.30;3.00;;;4.30;99.90;;;;;;5022957;28;20429;-57
2021/01/13 04:48:11;;;;;;;4.73;3.53;;;4.40;99.90;;;;;;5025859;28;20421;-54
2021/01/13 04:50:44;;;;;;;4.07;2.73;;;4.30;99.90;;;;;;5040827;28;20834;-54
2021/01/13 04:53:10;;;;;;;3.10;2.43;;;4.30;99.90;;;;;;5017130;28;20235;-56
2021/01/13 04:55:43;;;;;;;3.40;2.97;;;4.20;99.90;;;;;;5021107;28;20506;-54
2021/01/13 04:58:20;;;;;;;3.27;2.97;;;4.20;99.90;;;;;;5021393;28;20896;-57
2021/01/13 05:01:11;;;;;;;4.43;3.87;;;4.10;99.90;;;;;;5021006;28;20791;-53
2021/01/13 05:03:39;;;;;;;5.67;3.17;;;4.10;99.90;;;;;;5020468;28;20482;-53
2021/01/13 05:06:42;;;;;;;5.30;3.70;;;4.00;99.90;;;;;;5021043;28;20439;-53
2021/01/13 05:09:10;;;;;;;6.13;4.00;;;4.00;99.90;;;;;;5020766;28;20410;-56
2021/01/13 05:11:47;;;;;;;4.43;2.93;;;4.10;99.90;;;;;;5020746;28;20456;-56
2021/01/13 05:14:17;;;;;;;4.80;3.40;;;4.10;99.90;;;;;;5021325;28;20426;-57
2021/01/13 05:16:49;;;;;;;4.07;3.50;;;4.00;99.90;;;;;;5021121;28;20756;-57
2021/01/13 05:19:24;;;;;;;6.37;3.40;;;4.20;99.90;;;;;;5021324;28;20403;-55
2021/01/13 05:21:56;;;;;;;5.47;3.20;;;4.20;99.90;;;;;;5019933;28;20433;-54
2021/01/13 05:24:24;;;;;;;5.50;3.63;;;4.20;99.90;;;;;;5021043;28;20429;-56
2021/01/13 05:27:00;;;;;;;10.23;3.57;;;4.10;99.90;;;;;;5020490;28;20415;-53
2021/01/13 05:29:26;;;;;;;5.13;3.87;;;4.20;99.90;;;;;;5003462;28;20429;-57
2021/01/13 05:31:54;;;;;;;5.20;3.20;;;4.30;99.90;;;;;;5020255;28;20407;-55
2021/01/13 05:34:20;;;;;;;5.10;3.93;;;4.30;99.90;;;;;;5021184;28;20246;-56
2021/01/13 05:37:06;;;;;;;4.23;3.40;;;4.20;99.90;;;;;;5019809;28;20816;-55
2021/01/13 05:39:32;;;;;;;3.93;3.40;;;4.30;99.90;;;;;;5009873;28;20422;-53
2021/01/13 05:42:01;;;;;;;7.70;4.43;;;4.20;99.90;;;;;;5020652;28;20395;-54
2021/01/13 05:44:30;;;;;;;6.27;4.67;;;4.20;99.90;;;;;;5020828;28;20176;-55
2021/01/13 05:47:01;;;;;;;9.67;5.43;;;4.20;99.90;;;;;;5020648;28;20411;-56
2021/01/13 05:49:27;;;;;;;7.60;4.00;;;4.10;99.90;;;;;;5020109;28;20437;-57
2021/01/13 05:51:53;;;;;;;10.40;4.90;;;4.10;99.90;;;;;;5020622;28;20502;-57
2021/01/13 05:54:19;;;;;;;5.77;3.50;;;4.10;99.90;;;;;;5020583;28;20223;-57
2021/01/13 05:56:45;;;;;;;3.33;2.60;;;4.00;99.90;;;;;;5019850;28;20174;-55
2021/01/13 05:59:11;;;;;;;10.33;3.80;;;3.90;99.90;;;;;;5019195;28;20407;-55
2021/01/13 06:01:58;;;;;;;6.27;3.50;;;3.90;99.90;;;;;;5019931;28;20423;-57
2021/01/13 06:04:24;;;;;;;4.17;3.27;;;3.90;99.90;;;;;;5019133;28;20457;-53
2021/01/13 06:06:58;;;;;;;4.93;2.97;;;3.80;99.90;;;;;;5018982;28;20434;-52
2021/01/13 06:09:24;;;;;;;5.27;3.80;;;3.70;99.90;;;;;;5018510;28;20491;-55
2021/01/13 06:11:55;;;;;;;7.23;4.30;;;3.70;99.90;;;;;;5018760;28;20407;-56
2021/01/13 06:14:25;;;;;;;4.10;3.40;;;3.60;99.90;;;;;;5020270;28;20529;-56
2021/01/13 06:16:53;;;;;;;4.53;3.87;;;3.60;99.90;;;;;;5020063;28;20763;-55
2021/01/13 06:19:20;;;;;;;5.20;4.27;;;3.50;99.90;;;;;;5020338;28;20927;-54
2021/01/13 06:21:47;;;;;;;7.30;4.43;;;3.40;99.90;;;;;;5019361;28;20414;-57
2021/01/13 06:24:13;;;;;;;5.30;3.50;;;3.30;99.90;;;;;;5018965;28;20429;-56
2021/01/13 06:26:52;;;;;;;4.63;3.70;;;3.30;99.90;;;;;;5020706;28;20423;-56
2021/01/13 06:29:41;;;;;;;7.50;5.20;;;3.20;99.90;;;;;;5001261;28;20411;-56
2021/01/13 06:32:37;;;;;;;10.63;3.70;;;3.20;99.90;;;;;;5017791;28;20426;-56
2021/01/13 06:35:14;;;;;;;8.23;5.33;;;3.10;99.90;;;;;;4990743;28;20473;-56
2021/01/13 06:37:49;;;;;;;7.00;4.40;;;3.10;99.90;;;;;;5016889;28;20440;-53
2021/01/13 06:40:17;;;;;;;6.23;5.17;;;3.00;99.90;;;;;;5017691;28;20535;-53
2021/01/13 06:42:43;;;;;;;7.50;4.47;;;3.00;99.90;;;;;;5017768;28;20411;-54
2021/01/13 06:45:10;;;;;;;8.20;5.40;;;3.10;99.90;;;;;;5020193;28;20450;-57
2021/01/13 06:47:51;;;;;;;7.13;5.50;;;3.00;99.90;;;;;;5020135;28;20467;-53
2021/01/13 06:50:33;;;;;;;6.65;5.35;;;3.00;99.90;;;;;;5018372;28;20449;-56
2021/01/13 06:52:59;;;;;;;6.43;5.83;;;3.00;99.90;;;;;;5018054;28;20205;-55
2021/01/13 06:55:31;;;;;;;8.70;5.77;;;3.00;99.90;;;;;;5017482;28;20468;-55
2021/01/13 06:58:11;;;;;;;6.90;6.00;;;2.90;99.90;;;;;;5017933;28;20455;-54
2021/01/13 07:00:37;;;;;;;8.07;7.10;;;2.70;99.90;;;;;;5016474;28;20446;-56
2021/01/13 07:03:29;;;;;;;10.00;6.70;;;2.60;99.90;;;;;;5017538;28;20781;-53
2021/01/13 07:05:57;;;;;;;8.67;5.90;;;2.80;99.90;;;;;;5009244;28;20210;-54
2021/01/13 07:08:23;;;;;;;9.17;5.50;;;2.90;99.90;;;;;;5017330;28;20403;-56
2021/01/13 07:11:00;;;;;;;7.57;6.37;;;2.90;99.90;;;;;;5016680;28;20426;-54
2021/01/13 07:13:28;;;;;;;11.20;6.20;;;2.90;99.90;;;;;;5016537;28;20454;-56
2021/01/13 07:15:58;;;;;;;6.43;5.40;;;2.90;99.90;;;;;;5017818;28;20402;-57
2021/01/13 07:18:24;;;;;;;10.60;5.83;;;2.90;99.90;;;;;;5018391;28;20509;-54
2021/01/13 07:20:50;;;;;;;9.00;5.43;;;2.90;99.90;;;;;;5004573;28;20474;-57
2021/01/13 07:23:17;;;;;;;8.23;5.50;;;2.80;99.90;;;;;;5022877;28;20232;-57
2021/01/13 07:25:48;;;;;;;11.70;6.00;;;2.80;99.90;;;;;;5021925;28;20445;-57
2021/01/13 07:28:15;;;;;;;8.33;5.23;;;2.80;99.90;;;;;;5022004;28;20451;-56
2021/01/13 07:30:42;;;;;;;9.20;5.73;;;2.80;99.90;;;;;;5022557;28;20426;-56
2021/01/13 07:33:14;;;;;;;7.40;5.37;;;2.80;99.90;;;;;;5021134;28;20505;-56
2021/01/13 07:35:50;;;;;;;7.30;5.97;;;2.80;99.90;;;;;;5002981;28;20513;-57
2021/01/13 07:38:18;;;;;;;9.27;5.93;;;2.90;99.90;;;;;;5004303;28;20433;-56
2021/01/13 07:40:57;;;;;;;8.30;5.70;;;2.80;99.90;;;;;;5031026;28;20440;-56
2021/01/13 07:43:48;;;;;;;7.07;5.57;;;2.90;99.90;;;;;;5023507;28;20425;-57
2021/01/13 07:46:32;;;;;;;8.10;5.77;;;2.80;99.90;;;;;;5041392;28;20544;-57
2021/01/13 07:49:16;;;;;;;9.73;7.10;;;2.70;99.90;;;;;;5041673;28;20436;-54
2021/01/13 07:51:53;;;;;;;8.40;6.30;;;2.80;99.90;;;;;;5032911;28;20427;-56
2021/01/13 07:54:36;;;;;;;9.10;5.60;;;2.90;99.90;;;;;;5021433;28;20556;-56
2021/01/13 07:57:04;;;;;;;8.00;5.20;;;3.00;99.90;;;;;;5021177;28;20394;-57
2021/01/13 07:59:44;;;;;;;7.70;5.20;;;2.90;99.90;;;;;;5020167;28;20429;-56
2021/01/13 08:02:31;;;;;;;10.23;6.07;;;2.90;99.90;;;;;;5021326;28;20407;-57
2021/01/13 08:05:23;;;;;;;6.07;5.07;;;2.80;99.90;;;;;;5021061;28;20436;-55
2021/01/13 08:08:07;;;;;;;8.30;5.57;;;2.80;99.90;;;;;;5021627;28;20406;-54
2021/01/13 08:10:40;;;;;;;11.40;6.30;;;2.80;99.90;;;;;;5020833;28;20522;-54
2021/01/13 08:13:56;;;;;;;5.23;4.73;;;3.00;99.90;;;;;;5021147;28;20486;-58
2021/01/13 08:16:45;;;;;;;6.73;5.03;;;3.10;99.90;;;;;;5021874;28;20388;-57
2021/01/13 08:19:31;;;;;;;6.20;5.00;;;3.10;99.90;;;;;;5023943;28;20411;-54
2021/01/13 08:22:05;;;;;;;6.20;5.33;;;3.20;99.90;;;;;;5020790;28;20494;-55
2021/01/13 08:24:33;;;;;;;6.57;5.10;;;3.30;99.90;;;;;;5021181;28;20395;-56
2021/01/13 08:27:08;;;;;;;8.13;4.93;;;3.40;99.90;;;;;;5020841;28;20432;-54
2021/01/13 08:29:37;;;;;;;6.63;6.00;;;3.60;99.90;;;;;;5018405;28;20429;-58
2021/01/13 08:32:06;;;;;;;7.23;4.13;;;3.70;99.90;;;;;;5020292;28;20407;-53
2021/01/13 08:34:49;;;;;;;7.73;4.47;;;3.80;99.90;;;;;;5020928;28;20450;-55
2021/01/13 08:37:15;;;;;;;5.03;4.20;;;3.90;99.90;;;;;;5020238;28;20434;-57
2021/01/13 08:39:42;;;;;;;5.80;4.27;;;4.00;99.90;;;;;;5020958;28;20426;-57
2021/01/13 08:42:29;;;;;;;9.43;5.00;;;4.00;99.90;;;;;;5019540;28;20414;-54
2021/01/13 08:44:56;;;;;;;3.67;3.33;;;4.00;99.90;;;;;;5019743;28;20755;-57
2021/01/13 08:47:26;;;;;;;6.30;3.77;;;4.00;99.90;;;;;;5019769;28;20411;-58
2021/01/13 08:50:09;;;;;;;6.07;4.10;;;3.90;99.90;;;;;;5019404;28;20441;-56
2021/01/13 08:52:55;;;;;;;10.20;5.43;;;4.10;99.90;;;;;;5018119;28;20927;-57
2021/01/13 08:55:21;;;;;;;6.57;4.47;;;4.00;99.90;;;;;;5019166;28;20803;-55
2021/01/13 08:57:59;;;;;;;5.10;3.60;;;3.80;99.90;;;;;;5019779;28;20411;-55
2021/01/13 09:00:25;;;;;;;4.90;4.13;;;3.90;99.90;;;;;;5018977;28;20911;-54
2021/01/13 09:03:00;;;;;;;11.23;4.73;;;4.00;99.90;;;;;;5020773;28;20439;-57
2021/01/13 09:05:39;;;;;;;5.63;4.67;;;3.90;99.90;;;;;;5018984;28;20450;-57
2021/01/13 09:08:08;;;;;;;6.10;4.33;;;3.90;99.90;;;;;;5020546;28;20407;-58
2021/01/13 09:11:01;;;;;;;4.60;3.73;;;3.90;99.90;;;;;;5020380;28;20427;-57
2021/01/13 09:13:31;;;;;;;6.80;4.40;;;4.20;99.90;;;;;;5017524;28;21005;-57
2021/01/13 09:15:57;;;;;;;5.60;4.13;;;4.20;99.90;;;;;;5020470;28;20801;-55
2021/01/13 09:18:24;;;;;;;4.67;3.70;;;4.40;99.90;;;;;;5020401;28;20426;-56
2021/01/13 09:20:50;;;;;;;7.47;3.87;;;4.50;99.90;;;;;;5019262;28;20443;-56
2021/01/13 09:23:22;;;;;;;7.50;3.70;;;4.50;99.90;;;;;;5020746;28;20399;-56
2021/01/13 09:25:55;;;;;;;6.00;3.70;;;4.50;99.90;;;;;;5020507;28;20407;-55
2021/01/13 09:28:21;;;;;;;6.57;3.63;;;4.60;99.90;;;;;;5019906;28;20482;-54
2021/01/13 09:30:46;;;;;;;6.80;3.63;;;4.50;99.90;;;;;;5019235;28;20458;-53
2021/01/13 09:33:19;;;;;;;10.80;4.43;;;4.40;99.90;;;;;;5019181;28;20164;-54
2021/01/13 09:35:59;;;;;;;7.90;3.73;;;4.50;99.90;;;;;;5018244;28;20190;-57
2021/01/13 09:38:34;;;;;;;10.90;4.13;;;4.50;99.90;;;;;;5019460;28;20792;-55
2021/01/13 09:41:03;;;;;;;6.17;3.93;;;4.60;99.90;;;;;;5015793;28;20442;-55
2021/01/13 09:43:40;;;;;;;6.60;3.27;;;4.50;99.90;;;;;;5017296;28;20411;-54
2021/01/13 09:46:08;;;;;;;5.03;4.00;;;4.30;99.90;;;;;;5017625;28;20397;-53
2021/01/13 09:48:36;;;;;;;3.90;3.00;;;4.30;99.90;;;;;;5016613;28;20434;-53
2021/01/13 09:51:10;;;;;;;7.40;3.53;;;4.50;99.90;;;;;;5015226;28;20457;-56
2021/01/13 09:53:50;;;;;;;4.40;3.40;;;4.50;99.90;;;;;;5018907;28;20442;-53
2021/01/13 09:56:16;;;;;;;5.30;3.20;;;4.30;99.90;;;;;;5018721;28;20403;-56
2021/01/13 09:58:44;;;;;;;4.20;3.10;;;4.50;99.90;;;;;;5018750;28;20414;-53
2021/01/13 10:01:15;;;;;;;4.20;2.90;;;4.60;99.90;;;;;;5001070;28;20569;-53
2021/01/13 10:03:44;;;;;;;7.53;4.35;;;4.50;99.90;;;;;;5017863;28;20411;-55
2021/01/13 10:06:30;;;;;;;3.43;3.13;;;4.40;99.90;;;;;;5018464;28;20542;-54
2021/01/13 10:08:58;;;;;;;4.23;2.90;;;4.40;99.90;;;;;;5018104;28;20422;-55
2021/01/13 10:11:27;;;;;;;4.87;3.33;;;4.50;99.90;;;;;;5017739;28;20430;-55
2021/01/13 10:14:02;;;;;;;3.50;2.90;;;4.50;99.90;;;;;;5018382;28;20454;-53
2021/01/13 10:16:28;;;;;;;5.17;3.40;;;4.60;99.90;;;;;;5018407;28;20407;-55
2021/01/13 10:18:58;;;;;;;4.80;4.03;;;4.90;99.90;;;;;;5019905;28;20448;-54
2021/01/13 10:21:32;;;;;;;7.57;2.90;;;4.80;99.90;;;;;;5017033;28;20442;-56
2021/01/13 10:24:04;;;;;;;3.90;2.73;;;4.80;99.90;;;;;;5018665;28;20471;-56
2021/01/13 10:26:39;;;;;;;5.63;3.60;;;4.90;99.90;;;;;;5018586;28;20391;-56
2021/01/13 10:29:07;;;;;;;5.63;2.80;;;5.20;99.90;;;;;;5018514;28;20383;-55
2021/01/13 10:31:33;;;;;;;3.87;3.50;;;5.40;99.90;;;;;;5014148;28;20455;-55
2021/01/13 10:33:59;;;;;;;3.53;2.60;;;5.40;99.90;;;;;;5024260;28;20488;-54
2021/01/13 10:36:32;;;;;;;5.73;3.47;;;5.20;99.90;;;;;;5016197;28;20514;-54
2021/01/13 10:39:00;;;;;;;6.27;3.67;;;5.10;99.90;;;;;;5018742;28;20467;-56
2021/01/13 10:41:30;;;;;;;6.17;2.70;;;5.30;99.90;;;;;;5019258;28;20423;-55
2021/01/13 10:44:19;;;;;;;4.50;3.13;;;5.40;99.90;;;;;;5017888;28;20495;-56
2021/01/13 10:47:01;;;;;;;5.33;2.80;;;5.60;99.90;;;;;;4998820;28;20396;-54
2021/01/13 10:49:37;;;;;;;6.37;2.47;;;5.60;99.90;;;;;;4997878;28;20535;-56
2021/01/13 10:52:05;;;;;;;6.53;3.13;;;5.50;99.90;;;;;;5005569;28;20434;-53
2021/01/13 10:54:34;;;;;;;3.13;2.80;;;5.60;99.90;;;;;;5017604;28;20459;-57
2021/01/13 10:57:05;;;;;;;4.60;3.20;;;5.30;99.90;;;;;;5017775;28;20465;-58
2021/01/13 10:59:32;;;;;;;3.60;2.47;;;5.50;99.90;;;;;;5016121;28;20419;-57
2021/01/13 11:02:19;;;;;;;5.73;3.50;;;5.60;99.90;;;;;;5017129;28;20395;-57
2021/01/13 11:04:46;;;;;;;4.87;3.07;;;5.70;99.90;;;;;;5016671;28;20427;-58
2021/01/13 11:07:14;;;;;;;5.30;3.00;;;6.10;99.90;;;;;;5016893;28;20454;-56
2021/01/13 11:09:40;;;;;;;4.43;2.40;;;5.90;99.90;;;;;;5016920;28;20434;-55
2021/01/13 11:12:06;;;;;;;5.40;2.73;;;5.70;99.90;;;;;;5016707;28;20407;-57
2021/01/13 11:14:35;;;;;;;6.20;3.10;;;5.70;99.90;;;;;;5016446;28;20195;-58
2021/01/13 11:17:09;;;;;;;5.07;3.17;;;5.70;99.90;;;;;;5015897;28;20498;-55
2021/01/13 11:19:35;;;;;;;10.63;3.50;;;5.80;99.90;;;;;;5017661;28;20741;-55
2021/01/13 11:22:01;;;;;;;4.50;2.73;;;5.90;99.90;;;;;;5016358;28;20419;-56
2021/01/13 11:24:38;;;;;;;3.77;2.60;;;6.30;99.90;;;;;;5017405;28;20426;-57
2021/01/13 11:27:16;;;;;;;5.03;3.27;;;6.40;99.90;;;;;;5016597;28;20164;-58
2021/01/13 11:29:45;;;;;;;5.90;2.97;;;6.40;99.90;;;;;;5017083;28;20434;-55
2021/01/13 11:32:19;;;;;;;8.93;3.47;;;6.10;99.90;;;;;;5016098;28;20422;-53
2021/01/13 11:34:52;;;;;;;4.90;2.90;;;6.10;99.90;;;;;;5016201;28;20447;-56
2021/01/13 11:37:45;;;;;;;5.50;2.67;;;6.00;99.90;;;;;;5015144;28;20770;-56
2021/01/13 11:40:31;;;;;;;6.27;2.80;;;6.10;99.90;;;;;;5017039;28;20473;-56
2021/01/13 11:43:14;;;;;;;6.40;2.80;;;6.00;99.90;;;;;;5016903;28;20772;-55
2021/01/13 11:46:14;;;;;;;6.40;3.53;;;6.10;99.90;;;;;;5017224;28;20491;-54
2021/01/13 11:48:52;;;;;;;6.03;2.80;;;6.60;99.90;;;;;;5017101;28;20435;-53
2021/01/13 11:51:21;;;;;;;6.07;3.00;;;6.50;99.90;;;;;;5015834;28;20504;-55
2021/01/13 11:53:48;;;;;;;4.73;2.77;;;6.40;99.90;;;;;;5016005;28;20451;-56
2021/01/13 11:56:13;;;;;;;2.70;2.00;;;6.20;99.90;;;;;;5016028;28;20502;-56
2021/01/13 11:58:48;;;;;;;4.67;3.03;;;6.00;99.90;;;;;;5015931;28;20454;-54
2021/01/13 12:01:14;;;;;;;3.30;2.73;;;6.10;99.90;;;;;;5016384;28;20200;-56
2021/01/13 12:03:39;;;;;;;2.50;2.30;;;6.20;99.90;;;;;;5015962;28;20500;-55
2021/01/13 12:06:09;;;;;;;4.70;2.60;;;6.10;99.90;;;;;;5020854;28;20649;-53
2021/01/13 12:08:35;;;;;;;5.87;2.73;;;6.10;99.90;;;;;;5020640;28;20271;-56
2021/01/13 12:11:01;;;;;;;4.37;2.33;;;6.20;99.90;;;;;;5018973;28;20446;-53
2021/01/13 12:13:28;;;;;;;3.10;2.27;;;6.00;99.90;;;;;;5020215;28;20410;-57
2021/01/13 12:16:04;;;;;;;5.20;2.57;;;6.10;99.90;;;;;;5020691;28;20176;-58
2021/01/13 12:18:35;;;;;;;5.20;2.20;;;6.20;99.90;;;;;;5020577;28;20476;-56
2021/01/13 12:21:13;;;;;;;3.90;2.00;;;6.10;99.90;;;;;;5019761;28;20427;-57
2021/01/13 12:23:39;;;;;;;4.03;1.90;;;6.00;99.90;;;;;;5020585;28;20487;-56
2021/01/13 12:26:18;;;;;;;4.40;2.50;;;6.00;99.90;;;;;;5019994;28;20414;-55
2021/01/13 12:28:46;;;;;;;4.43;2.53;;;6.00;99.90;;;;;;5018513;28;20429;-57
2021/01/13 12:31:13;;;;;;;6.63;2.90;;;6.30;99.90;;;;;;5019346;28;20518;-58
2021/01/13 12:33:47;;;;;;;4.50;2.23;;;6.50;99.90;;;;;;5019312;28;20530;-58
2021/01/13 12:36:17;;;;;;;6.40;2.90;;;6.30;99.90;;;;;;4999814;28;20772;-57
2021/01/13 12:38:46;;;;;;;4.60;2.23;;;6.20;99.90;;;;;;4999614;28;20411;-57
2021/01/13 12:41:18;;;;;;;4.60;2.87;;;6.30;99.90;;;;;;5015454;28;20447;-58
2021/01/13 12:43:44;;;;;;;3.57;1.40;;;6.10;99.90;;;;;;5000893;28;20426;-58
2021/01/13 12:46:10;;;;;;;4.07;2.40;;;6.10;99.90;;;;;;5018086;28;20427;-56
2021/01/13 12:48:35;;;;;;;5.70;1.80;;;6.20;99.90;;;;;;5019415;28;20196;-53
2021/01/13 12:51:07;;;;;;;1.90;1.43;;;6.20;99.90;;;;;;5019654;28;20595;-54
2021/01/13 12:53:32;;;;;;;3.70;1.80;;;6.20;99.90;;;;;;5019321;28;20176;-55
2021/01/13 12:55:58;;;;;;;3.17;1.93;;;6.20;99.90;;;;;;5019144;28;20871;-57
2021/01/13 12:58:25;;;;;;;3.80;1.87;;;6.40;99.90;;;;;;5017790;28;20176;-54
2021/01/13 13:00:52;;;;;;;4.10;1.10;;;6.50;99.90;;;;;;5019029;28;20629;-57
2021/01/13 13:03:17;;;;;;;2.83;1.30;;;6.70;99.90;;;;;;5017654;28;20411;-56
2021/01/13 13:05:43;;;;;;;3.73;1.50;;;6.60;99.90;;;;;;5018711;28;20407;-57
2021/01/13 13:08:08;;;;;;;3.03;1.40;;;6.70;99.90;;;;;;5000691;28;20168;-57
2021/01/13 13:10:34;;;;;;;3.70;1.60;;;6.70;99.90;;;;;;5017517;28;20190;-55
2021/01/13 13:12:59;;;;;;;5.10;1.40;;;6.40;99.90;;;;;;5018447;28;20176;-57
2021/01/13 13:15:25;;;;;;;3.30;1.33;;;6.20;99.90;;;;;;5017956;28;20669;-58
2021/01/13 13:17:51;;;;;;;1.67;1.00;;;6.30;99.90;;;;;;5018371;28;20168;-58
2021/01/13 13:20:16;;;;;;;4.13;1.50;;;6.20;99.90;;;;;;5017672;28;20196;-55
2021/01/13 13:22:42;;;;;;;5.17;1.70;;;6.20;99.90;;;;;;5016557;28;20172;-56